sensor_id;sensor_type;location;lat;lon;timestamp;temperature;humidity
4596;DHT22;2310;49.978;8.742;2022-07-23T00:02:24;24.20;99.90
4596;DHT22;2310;49.978;8.742;2022-07-23T00:06:26;24.00;99.90
4596;DHT22;2310;49.978;8.742;2022-07-23T00:10:27;24.10;99.90
4596;DHT22;2310;49.978;8.742;2022-07-23T00:14:28;24.10;99.90
4596;DHT22;2310;49.978;8.742;2022-07-23T00:18:30;24.20;99.90
4596;DHT22;2310;49.978;8.742;2022-07-23T00:22:31;24.20;99.90
4596;DHT22;2310;49.978;8.742;2022-07-23T00:26:32;24.10;99.90
4596;DHT22;2310;49.978;8.742;2022-07-23T00:30:33;24.10;99.90
4596;DHT22;2310;49.978;8.742;2022-07-23T00:34:35;24.10;99.90
4596;DHT22;2310;49.978;8.742;2022-07-23T00:38:36;24.10;99.90
4596;DHT22;2310;49.978;8.742;2022-07-23T00:42:38;24.00;99.90
4596;DHT22;2310;49.978;8.742;2022-07-23T00:46:48;24.20;99.90
4596;DHT22;2310;49.978;8.742;2022-07-23T00:50:50;24.10;99.90
4596;DHT22;2310;49.978;8.742;2022-07-23T00:54:51;24.00;99.90
4596;DHT22;2310;49.978;8.742;2022-07-23T00:58:52;24.00;99.90
4596;DHT22;2310;49.978;8.742;2022-07-23T01:02:54;23.80;99.90
4596;DHT22;2310;49.978;8.742;2022-07-23T01:06:55;23.60;99.90
4596;DHT22;2310;49.978;8.742;2022-07-23T01:10:57;23.40;99.90
4596;DHT22;2310;49.978;8.742;2022-07-23T01:14:59;23.40;99.90
4596;DHT22;2310;49.978;8.742;2022-07-23T01:19:00;23.30;99.90
4596;DHT22;2310;49.978;8.742;2022-07-23T01:23:02;23.50;99.90
4596;DHT22;2310;49.978;8.742;2022-07-23T01:27:04;23.70;99.90
4596;DHT22;2310;49.978;8.742;2022-07-23T01:31:06;23.70;99.90
4596;DHT22;2310;49.978;8.742;2022-07-23T01:35:08;23.50;99.90
4596;DHT22;2310;49.978;8.742;2022-07-23T01:39:10;23.30;99.90
4596;DHT22;2310;49.978;8.742;2022-07-23T01:43:12;23.30;99.90
4596;DHT22;2310;49.978;8.742;2022-07-23T01:47:14;23.20;99.90
4596;DHT22;2310;49.978;8.742;2022-07-23T01:51:15;23.30;99.90
4596;DHT22;2310;49.978;8.742;2022-07-23T01:55:16;23.40;99.90
4596;DHT22;2310;49.978;8.742;2022-07-23T01:59:20;23.30;99.90
4596;DHT22;2310;49.978;8.742;2022-07-23T02:03:22;23.30;99.90
4596;DHT22;2310;49.978;8.742;2022-07-23T02:07:23;23.10;99.90
4596;DHT22;2310;49.978;8.742;2022-07-23T02:11:24;23.20;99.90
4596;DHT22;2310;49.978;8.742;2022-07-23T02:15:26;23.20;99.90
4596;DHT22;2310;49.978;8.742;2022-07-23T02:19:27;23.10;99.90
4596;DHT22;2310;49.978;8.742;2022-07-23T02:23:28;23.10;99.90
4596;DHT22;2310;49.978;8.742;2022-07-23T02:27:30;23.00;99.90
4596;DHT22;2310;49.978;8.742;2022-07-23T02:31:31;22.90;99.90
4596;DHT22;2310;49.978;8.742;2022-07-23T02:35:33;22.70;99.90
4596;DHT22;2310;49.978;8.742;2022-07-23T02:39:35;22.60;99.90
4596;DHT22;2310;49.978;8.742;2022-07-23T02:43:36;22.60;99.90
4596;DHT22;2310;49.978;8.742;2022-07-23T02:47:37;22.40;99.90
4596;DHT22;2310;49.978;8.742;2022-07-23T02:51:39;22.40;99.90
4596;DHT22;2310;49.978;8.742;2022-07-23T02:55:40;22.50;99.90
4596;DHT22;2310;49.978;8.742;2022-07-23T02:59:41;22.50;99.90
4596;DHT22;2310;49.978;8.742;2022-07-23T03:03:42;22.70;99.90
4596;DHT22;2310;49.978;8.742;2022-07-23T03:07:43;22.80;99.90
4596;DHT22;2310;49.978;8.742;2022-07-23T03:11:44;22.50;99.90
4596;DHT22;2310;49.978;8.742;2022-07-23T03:15:46;22.30;99.90
4596;DHT22;2310;49.978;8.742;2022-07-23T03:19:47;22.30;99.90
4596;DHT22;2310;49.978;8.742;2022-07-23T03:23:48;22.10;99.90
4596;DHT22;2310;49.978;8.742;2022-07-23T03:27:49;22.10;99.90
4596;DHT22;2310;49.978;8.742;2022-07-23T03:31:51;22.40;99.90
4596;DHT22;2310;49.978;8.742;2022-07-23T03:35:52;22.40;99.90
4596;DHT22;2310;49.978;8.742;2022-07-23T03:39:53;22.30;99.90
4596;DHT22;2310;49.978;8.742;2022-07-23T03:43:54;22.20;99.90
4596;DHT22;2310;49.978;8.742;2022-07-23T03:47:56;22.30;99.90
4596;DHT22;2310;49.978;8.742;2022-07-23T03:51:57;22.20;99.90
4596;DHT22;2310;49.978;8.742;2022-07-23T03:55:59;22.10;99.90
4596;DHT22;2310;49.978;8.742;2022-07-23T04:00:02;22.00;99.90
4596;DHT22;2310;49.978;8.742;2022-07-23T04:04:05;22.00;99.90
4596;DHT22;2310;49.978;8.742;2022-07-23T04:08:08;22.10;99.90
4596;DHT22;2310;49.978;8.742;2022-07-23T04:12:10;22.20;99.90
4596;DHT22;2310;49.978;8.742;2022-07-23T04:16:11;22.30;99.90
4596;DHT22;2310;49.978;8.742;2022-07-23T04:20:13;22.40;99.90
4596;DHT22;2310;49.978;8.742;2022-07-23T04:24:14;22.40;99.90
4596;DHT22;2310;49.978;8.742;2022-07-23T04:28:15;22.40;99.90
4596;DHT22;2310;49.978;8.742;2022-07-23T04:32:16;22.40;99.90
4596;DHT22;2310;49.978;8.742;2022-07-23T04:36:17;22.40;99.90
4596;DHT22;2310;49.978;8.742;2022-07-23T04:40:18;22.30;99.90
4596;DHT22;2310;49.978;8.742;2022-07-23T04:44:20;22.20;99.90
4596;DHT22;2310;49.978;8.742;2022-07-23T04:48:21;22.30;99.90
4596;DHT22;2310;49.978;8.742;2022-07-23T04:52:23;22.40;99.90
4596;DHT22;2310;49.978;8.742;2022-07-23T04:56:24;22.80;99.90
4596;DHT22;2310;49.978;8.742;2022-07-23T05:00:26;23.10;99.90
4596;DHT22;2310;49.978;8.742;2022-07-23T05:04:27;23.10;99.90
4596;DHT22;2310;49.978;8.742;2022-07-23T05:08:28;23.10;99.90
4596;DHT22;2310;49.978;8.742;2022-07-23T05:12:30;22.70;99.90
4596;DHT22;2310;49.978;8.742;2022-07-23T05:16:31;22.60;99.90
4596;DHT22;2310;49.978;8.742;2022-07-23T05:20:32;22.40;99.90
4596;DHT22;2310;49.978;8.742;2022-07-23T05:24:33;22.40;99.90
4596;DHT22;2310;49.978;8.742;2022-07-23T05:28:35;22.40;99.90
4596;DHT22;2310;49.978;8.742;2022-07-23T05:32:36;22.70;99.90
4596;DHT22;2310;49.978;8.742;2022-07-23T05:36:37;22.60;99.90
4596;DHT22;2310;49.978;8.742;2022-07-23T05:40:38;22.60;99.90
4596;DHT22;2310;49.978;8.742;2022-07-23T05:44:39;22.70;99.90
4596;DHT22;2310;49.978;8.742;2022-07-23T05:48:41;22.70;99.90
4596;DHT22;2310;49.978;8.742;2022-07-23T05:52:43;22.60;99.90
4596;DHT22;2310;49.978;8.742;2022-07-23T05:56:45;22.70;99.90
4596;DHT22;2310;49.978;8.742;2022-07-23T06:00:46;22.50;99.90
4596;DHT22;2310;49.978;8.742;2022-07-23T06:04:47;22.50;99.90
4596;DHT22;2310;49.978;8.742;2022-07-23T06:08:48;22.50;99.90
4596;DHT22;2310;49.978;8.742;2022-07-23T06:12:49;22.50;99.90
4596;DHT22;2310;49.978;8.742;2022-07-23T06:16:51;22.60;99.90
4596;DHT22;2310;49.978;8.742;2022-07-23T06:20:52;23.30;99.90
4596;DHT22;2310;49.978;8.742;2022-07-23T06:24:55;23.80;99.90
4596;DHT22;2310;49.978;8.742;2022-07-23T06:28:56;23.80;99.90
4596;DHT22;2310;49.978;8.742;2022-07-23T06:32:57;23.40;99.90
4596;DHT22;2310;49.978;8.742;2022-07-23T06:36:59;23.10;99.90
4596;DHT22;2310;49.978;8.742;2022-07-23T06:41:03;23.40;99.90
4596;DHT22;2310;49.978;8.742;2022-07-23T06:45:05;23.30;99.90
4596;DHT22;2310;49.978;8.742;2022-07-23T06:49:07;23.30;99.90
4596;DHT22;2310;49.978;8.742;2022-07-23T06:53:09;23.10;99.90
4596;DHT22;2310;49.978;8.742;2022-07-23T06:57:10;23.10;99.90
4596;DHT22;2310;49.978;8.742;2022-07-23T07:01:11;23.20;99.90
4596;DHT22;2310;49.978;8.742;2022-07-23T07:05:12;23.40;99.90
4596;DHT22;2310;49.978;8.742;2022-07-23T07:09:13;23.60;99.90
4596;DHT22;2310;49.978;8.742;2022-07-23T07:13:15;23.70;99.90
4596;DHT22;2310;49.978;8.742;2022-07-23T07:17:16;23.60;99.90
4596;DHT22;2310;49.978;8.742;2022-07-23T07:21:17;23.80;99.90
4596;DHT22;2310;49.978;8.742;2022-07-23T07:25:19;24.20;99.90
4596;DHT22;2310;49.978;8.742;2022-07-23T07:29:20;24.50;99.90
4596;DHT22;2310;49.978;8.742;2022-07-23T07:33:21;24.60;99.90
4596;DHT22;2310;49.978;8.742;2022-07-23T07:37:22;24.90;99.90
4596;DHT22;2310;49.978;8.742;2022-07-23T07:41:24;24.90;99.90
4596;DHT22;2310;49.978;8.742;2022-07-23T07:45:27;25.10;99.90
4596;DHT22;2310;49.978;8.742;2022-07-23T07:49:28;25.00;99.90
4596;DHT22;2310;49.978;8.742;2022-07-23T07:53:31;24.90;99.90
4596;DHT22;2310;49.978;8.742;2022-07-23T07:57:32;25.20;99.90
4596;DHT22;2310;49.978;8.742;2022-07-23T08:01:34;25.30;99.90
4596;DHT22;2310;49.978;8.742;2022-07-23T08:05:35;25.60;99.90
4596;DHT22;2310;49.978;8.742;2022-07-23T08:09:37;25.60;99.90
4596;DHT22;2310;49.978;8.742;2022-07-23T08:13:38;25.60;99.90
4596;DHT22;2310;49.978;8.742;2022-07-23T08:17:40;26.10;99.90
4596;DHT22;2310;49.978;8.742;2022-07-23T08:21:42;26.30;99.90
4596;DHT22;2310;49.978;8.742;2022-07-23T08:25:43;26.50;99.90
4596;DHT22;2310;49.978;8.742;2022-07-23T08:29:44;26.30;99.90
4596;DHT22;2310;49.978;8.742;2022-07-23T08:33:46;26.30;99.90
4596;DHT22;2310;49.978;8.742;2022-07-23T08:37:47;26.40;99.90
4596;DHT22;2310;49.978;8.742;2022-07-23T08:41:48;27.00;99.90
4596;DHT22;2310;49.978;8.742;2022-07-23T08:45:54;27.60;99.90
4596;DHT22;2310;49.978;8.742;2022-07-23T08:49:58;27.80;99.90
4596;DHT22;2310;49.978;8.742;2022-07-23T08:54:00;28.50;97.30
4596;DHT22;2310;49.978;8.742;2022-07-23T08:58:03;28.50;96.20
4596;DHT22;2310;49.978;8.742;2022-07-23T09:02:04;28.70;93.90
4596;DHT22;2310;49.978;8.742;2022-07-23T09:06:06;28.50;92.80
4596;DHT22;2310;49.978;8.742;2022-07-23T09:10:10;28.40;92.90
4596;DHT22;2310;49.978;8.742;2022-07-23T09:14:11;28.40;93.20
4596;DHT22;2310;49.978;8.742;2022-07-23T09:18:15;29.10;92.30
4596;DHT22;2310;49.978;8.742;2022-07-23T09:22:18;29.50;89.40
4596;DHT22;2310;49.978;8.742;2022-07-23T09:26:28;29.50;90.10
4596;DHT22;2310;49.978;8.742;2022-07-23T09:30:33;29.90;84.60
4596;DHT22;2310;49.978;8.742;2022-07-23T09:34:37;29.80;81.70
4596;DHT22;2310;49.978;8.742;2022-07-23T09:38:47;30.30;80.40
4596;DHT22;2310;49.978;8.742;2022-07-23T09:42:55;30.80;81.80
4596;DHT22;2310;49.978;8.742;2022-07-23T09:46:59;31.50;73.60
4596;DHT22;2310;49.978;8.742;2022-07-23T09:51:04;31.80;72.30
4596;DHT22;2310;49.978;8.742;2022-07-23T09:55:07;32.20;69.70
4596;DHT22;2310;49.978;8.742;2022-07-23T09:59:09;32.70;67.50
4596;DHT22;2310;49.978;8.742;2022-07-23T10:03:12;32.80;67.50
4596;DHT22;2310;49.978;8.742;2022-07-23T10:07:16;32.60;64.30
4596;DHT22;2310;49.978;8.742;2022-07-23T10:11:18;32.30;65.30
4596;DHT22;2310;49.978;8.742;2022-07-23T10:15:19;31.90;65.10
4596;DHT22;2310;49.978;8.742;2022-07-23T10:19:21;32.20;65.50
4596;DHT22;2310;49.978;8.742;2022-07-23T10:32:04;32.80;59.40
4596;DHT22;2310;49.978;8.742;2022-07-23T10:40:32;32.00;61.30
4596;DHT22;2310;49.978;8.742;2022-07-23T10:44:39;31.80;62.60
4596;DHT22;2310;49.978;8.742;2022-07-23T10:48:41;31.90;63.20
4596;DHT22;2310;49.978;8.742;2022-07-23T10:53:07;32.20;61.80
4596;DHT22;2310;49.978;8.742;2022-07-23T10:57:05;32.20;60.30
4596;DHT22;2310;49.978;8.742;2022-07-23T11:01:34;32.00;61.20
4596;DHT22;2310;49.978;8.742;2022-07-23T11:05:41;32.50;60.90
4596;DHT22;2310;49.978;8.742;2022-07-23T11:09:44;33.50;59.20
4596;DHT22;2310;49.978;8.742;2022-07-23T11:13:48;34.20;56.50
4596;DHT22;2310;49.978;8.742;2022-07-23T11:17:58;34.00;55.60
4596;DHT22;2310;49.978;8.742;2022-07-23T11:21:55;32.90;57.50
4596;DHT22;2310;49.978;8.742;2022-07-23T11:25:58;32.20;60.50
4596;DHT22;2310;49.978;8.742;2022-07-23T11:29:59;32.10;58.90
4596;DHT22;2310;49.978;8.742;2022-07-23T11:38:30;30.80;62.20
4596;DHT22;2310;49.978;8.742;2022-07-23T11:42:33;31.70;63.50
4596;DHT22;2310;49.978;8.742;2022-07-23T11:46:34;32.40;60.80
4596;DHT22;2310;49.978;8.742;2022-07-23T11:50:36;31.90;60.50
4596;DHT22;2310;49.978;8.742;2022-07-23T11:54:56;31.90;60.50
4596;DHT22;2310;49.978;8.742;2022-07-23T11:58:58;31.70;60.60
4596;DHT22;2310;49.978;8.742;2022-07-23T12:03:03;31.10;61.20
4596;DHT22;2310;49.978;8.742;2022-07-23T12:07:23;31.00;63.70
4596;DHT22;2310;49.978;8.742;2022-07-23T12:11:24;31.50;62.30
4596;DHT22;2310;49.978;8.742;2022-07-23T12:15:29;32.50;59.80
4596;DHT22;2310;49.978;8.742;2022-07-23T12:19:32;32.90;59.50
4596;DHT22;2310;49.978;8.742;2022-07-23T12:23:34;32.40;58.10
4596;DHT22;2310;49.978;8.742;2022-07-23T12:27:37;32.60;58.20
4596;DHT22;2310;49.978;8.742;2022-07-23T12:31:39;33.30;57.70
4596;DHT22;2310;49.978;8.742;2022-07-23T12:35:43;33.40;55.30
4596;DHT22;2310;49.978;8.742;2022-07-23T12:39:45;33.40;54.60
4596;DHT22;2310;49.978;8.742;2022-07-23T12:43:47;34.40;54.30
4596;DHT22;2310;49.978;8.742;2022-07-23T12:47:57;34.50;53.20
4596;DHT22;2310;49.978;8.742;2022-07-23T12:52:14;34.50;51.70
4596;DHT22;2310;49.978;8.742;2022-07-23T12:56:12;34.40;52.60
4596;DHT22;2310;49.978;8.742;2022-07-23T13:00:16;33.70;52.90
4596;DHT22;2310;49.978;8.742;2022-07-23T13:04:20;33.10;54.00
4596;DHT22;2310;49.978;8.742;2022-07-23T13:08:23;33.70;54.00
4596;DHT22;2310;49.978;8.742;2022-07-23T13:12:25;33.70;53.10
4596;DHT22;2310;49.978;8.742;2022-07-23T13:16:29;33.70;53.00
4596;DHT22;2310;49.978;8.742;2022-07-23T13:20:31;33.30;52.10
4596;DHT22;2310;49.978;8.742;2022-07-23T13:24:34;32.30;52.90
4596;DHT22;2310;49.978;8.742;2022-07-23T13:28:37;32.20;54.00
4596;DHT22;2310;49.978;8.742;2022-07-23T13:32:39;32.40;53.60
4596;DHT22;2310;49.978;8.742;2022-07-23T13:36:40;33.10;52.90
4596;DHT22;2310;49.978;8.742;2022-07-23T13:40:43;33.00;52.50
4596;DHT22;2310;49.978;8.742;2022-07-23T13:44:45;32.50;51.50
4596;DHT22;2310;49.978;8.742;2022-07-23T13:48:47;32.90;51.20
4596;DHT22;2310;49.978;8.742;2022-07-23T13:52:48;32.70;52.00
4596;DHT22;2310;49.978;8.742;2022-07-23T13:56:49;33.20;51.60
4596;DHT22;2310;49.978;8.742;2022-07-23T14:00:53;33.20;50.80
4596;DHT22;2310;49.978;8.742;2022-07-23T14:04:55;32.40;50.40
4596;DHT22;2310;49.978;8.742;2022-07-23T14:08:56;32.20;51.50
4596;DHT22;2310;49.978;8.742;2022-07-23T14:12:57;32.60;51.30
4596;DHT22;2310;49.978;8.742;2022-07-23T14:16:59;32.60;51.30
4596;DHT22;2310;49.978;8.742;2022-07-23T14:21:06;32.20;50.60
4596;DHT22;2310;49.978;8.742;2022-07-23T14:25:09;32.30;51.00
4596;DHT22;2310;49.978;8.742;2022-07-23T14:29:11;32.50;51.00
4596;DHT22;2310;49.978;8.742;2022-07-23T14:33:13;32.50;50.00
4596;DHT22;2310;49.978;8.742;2022-07-23T14:37:16;32.30;50.50
4596;DHT22;2310;49.978;8.742;2022-07-23T14:41:17;32.20;50.60
4596;DHT22;2310;49.978;8.742;2022-07-23T14:45:19;32.50;50.60
4596;DHT22;2310;49.978;8.742;2022-07-23T14:49:20;32.60;49.60
4596;DHT22;2310;49.978;8.742;2022-07-23T14:53:22;33.00;50.40
4596;DHT22;2310;49.978;8.742;2022-07-23T14:57:25;32.50;50.00
4596;DHT22;2310;49.978;8.742;2022-07-23T15:01:28;32.30;50.20
4596;DHT22;2310;49.978;8.742;2022-07-23T15:05:29;32.30;50.70
4596;DHT22;2310;49.978;8.742;2022-07-23T15:09:31;32.60;50.50
4596;DHT22;2310;49.978;8.742;2022-07-23T15:13:32;32.50;49.80
4596;DHT22;2310;49.978;8.742;2022-07-23T15:17:34;32.30;50.10
4596;DHT22;2310;49.978;8.742;2022-07-23T15:21:35;31.70;50.90
4596;DHT22;2310;49.978;8.742;2022-07-23T15:25:36;31.20;51.60
4596;DHT22;2310;49.978;8.742;2022-07-23T15:29:38;31.10;52.50
4596;DHT22;2310;49.978;8.742;2022-07-23T15:33:41;31.30;51.80
4596;DHT22;2310;49.978;8.742;2022-07-23T15:37:43;31.20;51.90
4596;DHT22;2310;49.978;8.742;2022-07-23T15:41:46;31.70;51.90
4596;DHT22;2310;49.978;8.742;2022-07-23T15:45:49;32.20;51.30
4596;DHT22;2310;49.978;8.742;2022-07-23T15:49:52;32.20;50.40
4596;DHT22;2310;49.978;8.742;2022-07-23T15:53:53;31.80;50.00
4596;DHT22;2310;49.978;8.742;2022-07-23T15:57:55;31.30;50.30
4596;DHT22;2310;49.978;8.742;2022-07-23T16:01:57;30.70;50.80
4596;DHT22;2310;49.978;8.742;2022-07-23T16:05:59;30.50;51.40
4596;DHT22;2310;49.978;8.742;2022-07-23T16:10:00;30.60;51.60
4596;DHT22;2310;49.978;8.742;2022-07-23T16:14:02;30.70;51.20
4596;DHT22;2310;49.978;8.742;2022-07-23T16:18:03;30.90;51.10
4596;DHT22;2310;49.978;8.742;2022-07-23T16:22:04;31.30;50.20
4596;DHT22;2310;49.978;8.742;2022-07-23T16:26:06;31.20;49.90
4596;DHT22;2310;49.978;8.742;2022-07-23T16:30:09;31.20;50.50
4596;DHT22;2310;49.978;8.742;2022-07-23T16:34:11;31.20;49.70
4596;DHT22;2310;49.978;8.742;2022-07-23T16:38:13;31.30;49.00
4596;DHT22;2310;49.978;8.742;2022-07-23T16:42:14;31.30;48.50
4596;DHT22;2310;49.978;8.742;2022-07-23T16:46:16;31.20;48.90
4596;DHT22;2310;49.978;8.742;2022-07-23T16:50:17;31.30;47.60
4596;DHT22;2310;49.978;8.742;2022-07-23T16:54:19;31.10;47.80
4596;DHT22;2310;49.978;8.742;2022-07-23T16:58:22;31.10;48.00
4596;DHT22;2310;49.978;8.742;2022-07-23T17:02:24;31.00;48.80
4596;DHT22;2310;49.978;8.742;2022-07-23T17:06:26;30.70;48.50
4596;DHT22;2310;49.978;8.742;2022-07-23T17:10:27;30.60;48.30
4596;DHT22;2310;49.978;8.742;2022-07-23T17:14:29;30.80;48.90
4596;DHT22;2310;49.978;8.742;2022-07-23T17:18:30;30.80;49.10
4596;DHT22;2310;49.978;8.742;2022-07-23T17:22:32;30.60;49.30
4596;DHT22;2310;49.978;8.742;2022-07-23T17:26:33;30.20;49.20
4596;DHT22;2310;49.978;8.742;2022-07-23T17:30:36;30.10;49.00
4596;DHT22;2310;49.978;8.742;2022-07-23T17:34:37;29.90;49.60
4596;DHT22;2310;49.978;8.742;2022-07-23T17:38:38;29.40;50.10
4596;DHT22;2310;49.978;8.742;2022-07-23T17:42:40;29.40;50.80
4596;DHT22;2310;49.978;8.742;2022-07-23T17:46:41;29.20;50.70
4596;DHT22;2310;49.978;8.742;2022-07-23T17:50:42;29.10;50.60
4596;DHT22;2310;49.978;8.742;2022-07-23T17:54:44;29.30;51.60
4596;DHT22;2310;49.978;8.742;2022-07-23T17:58:45;29.20;51.10
4596;DHT22;2310;49.978;8.742;2022-07-23T18:02:46;29.00;52.10
4596;DHT22;2310;49.978;8.742;2022-07-23T18:06:47;29.10;51.60
4596;DHT22;2310;49.978;8.742;2022-07-23T18:10:49;29.10;51.50
4596;DHT22;2310;49.978;8.742;2022-07-23T18:14:50;29.00;51.80
4596;DHT22;2310;49.978;8.742;2022-07-23T18:18:51;29.00;51.80
4596;DHT22;2310;49.978;8.742;2022-07-23T18:22:53;28.80;52.20
4596;DHT22;2310;49.978;8.742;2022-07-23T18:26:54;29.00;53.70
4596;DHT22;2310;49.978;8.742;2022-07-23T18:30:56;29.00;53.00
4596;DHT22;2310;49.978;8.742;2022-07-23T18:34:58;28.90;52.90
4596;DHT22;2310;49.978;8.742;2022-07-23T18:38:59;29.00;53.00
4596;DHT22;2310;49.978;8.742;2022-07-23T18:43:02;29.00;53.60
4596;DHT22;2310;49.978;8.742;2022-07-23T18:47:04;29.10;53.20
4596;DHT22;2310;49.978;8.742;2022-07-23T18:51:06;28.90;53.10
4596;DHT22;2310;49.978;8.742;2022-07-23T18:55:08;28.60;52.80
4596;DHT22;2310;49.978;8.742;2022-07-23T18:59:09;28.60;52.80
4596;DHT22;2310;49.978;8.742;2022-07-23T19:03:12;28.50;53.10
4596;DHT22;2310;49.978;8.742;2022-07-23T19:07:14;28.50;53.30
4596;DHT22;2310;49.978;8.742;2022-07-23T19:11:15;28.40;53.40
4596;DHT22;2310;49.978;8.742;2022-07-23T19:15:16;28.10;53.70
4596;DHT22;2310;49.978;8.742;2022-07-23T19:19:18;28.10;53.70
4596;DHT22;2310;49.978;8.742;2022-07-23T19:23:19;28.00;53.90
4596;DHT22;2310;49.978;8.742;2022-07-23T19:27:21;27.80;54.20
4596;DHT22;2310;49.978;8.742;2022-07-23T19:31:23;27.60;54.00
4596;DHT22;2310;49.978;8.742;2022-07-23T19:35:24;27.40;55.00
4596;DHT22;2310;49.978;8.742;2022-07-23T19:39:26;27.10;55.60
4596;DHT22;2310;49.978;8.742;2022-07-23T19:43:27;27.20;55.50
4596;DHT22;2310;49.978;8.742;2022-07-23T19:47:28;27.30;56.30
4596;DHT22;2310;49.978;8.742;2022-07-23T19:51:30;27.50;55.60
4596;DHT22;2310;49.978;8.742;2022-07-23T19:55:31;27.50;55.40
4596;DHT22;2310;49.978;8.742;2022-07-23T19:59:34;27.40;55.80
4596;DHT22;2310;49.978;8.742;2022-07-23T20:03:35;27.30;56.30
4596;DHT22;2310;49.978;8.742;2022-07-23T20:07:38;27.30;56.40
4596;DHT22;2310;49.978;8.742;2022-07-23T20:11:40;27.40;56.50
4596;DHT22;2310;49.978;8.742;2022-07-23T20:15:41;27.40;56.70
4596;DHT22;2310;49.978;8.742;2022-07-23T20:19:42;27.40;56.80
4596;DHT22;2310;49.978;8.742;2022-07-23T20:23:43;27.40;57.40
4596;DHT22;2310;49.978;8.742;2022-07-23T20:27:44;27.40;57.80
4596;DHT22;2310;49.978;8.742;2022-07-23T20:31:47;27.50;58.10
4596;DHT22;2310;49.978;8.742;2022-07-23T20:35:50;27.40;57.80
4596;DHT22;2310;49.978;8.742;2022-07-23T20:39:51;27.60;58.20
4596;DHT22;2310;49.978;8.742;2022-07-23T20:43:53;27.70;58.40
4596;DHT22;2310;49.978;8.742;2022-07-23T20:47:54;27.70;58.40
4596;DHT22;2310;49.978;8.742;2022-07-23T20:51:56;27.70;58.40
4596;DHT22;2310;49.978;8.742;2022-07-23T20:55:57;27.70;58.40
4596;DHT22;2310;49.978;8.742;2022-07-23T21:00:00;27.50;57.70
4596;DHT22;2310;49.978;8.742;2022-07-23T21:04:01;27.30;58.70
4596;DHT22;2310;49.978;8.742;2022-07-23T21:08:03;27.30;58.60
4596;DHT22;2310;49.978;8.742;2022-07-23T21:12:05;27.40;58.50
4596;DHT22;2310;49.978;8.742;2022-07-23T21:16:07;27.30;58.80
4596;DHT22;2310;49.978;8.742;2022-07-23T21:20:09;27.30;58.90
4596;DHT22;2310;49.978;8.742;2022-07-23T21:24:10;27.20;58.70
4596;DHT22;2310;49.978;8.742;2022-07-23T21:28:12;27.10;59.20
4596;DHT22;2310;49.978;8.742;2022-07-23T21:32:13;26.80;59.60
4596;DHT22;2310;49.978;8.742;2022-07-23T21:36:14;26.50;59.90
4596;DHT22;2310;49.978;8.742;2022-07-23T21:40:16;26.50;60.60
4596;DHT22;2310;49.978;8.742;2022-07-23T21:44:17;26.30;61.10
4596;DHT22;2310;49.978;8.742;2022-07-23T21:48:18;26.00;62.30
4596;DHT22;2310;49.978;8.742;2022-07-23T21:52:20;25.90;63.10
4596;DHT22;2310;49.978;8.742;2022-07-23T21:56:22;25.70;64.20
4596;DHT22;2310;49.978;8.742;2022-07-23T22:00:30;25.70;64.90
4596;DHT22;2310;49.978;8.742;2022-07-23T22:04:31;25.50;65.70
4596;DHT22;2310;49.978;8.742;2022-07-23T22:08:33;25.50;66.60
4596;DHT22;2310;49.978;8.742;2022-07-23T22:12:34;25.30;68.10
4596;DHT22;2310;49.978;8.742;2022-07-23T22:16:35;25.20;68.90
4596;DHT22;2310;49.978;8.742;2022-07-23T22:20:37;25.10;70.40
4596;DHT22;2310;49.978;8.742;2022-07-23T22:24:39;25.10;71.50
4596;DHT22;2310;49.978;8.742;2022-07-23T22:28:40;25.10;72.50
4596;DHT22;2310;49.978;8.742;2022-07-23T22:32:42;25.00;73.80
4596;DHT22;2310;49.978;8.742;2022-07-23T22:36:44;24.90;75.10
4596;DHT22;2310;49.978;8.742;2022-07-23T22:40:45;24.90;76.60
4596;DHT22;2310;49.978;8.742;2022-07-23T22:44:47;24.90;77.80
4596;DHT22;2310;49.978;8.742;2022-07-23T22:48:48;24.90;78.50
4596;DHT22;2310;49.978;8.742;2022-07-23T22:52:49;24.80;81.00
4596;DHT22;2310;49.978;8.742;2022-07-23T22:56:51;24.90;81.10
4596;DHT22;2310;49.978;8.742;2022-07-23T23:00:52;24.90;81.00
4596;DHT22;2310;49.978;8.742;2022-07-23T23:04:53;24.70;82.80
4596;DHT22;2310;49.978;8.742;2022-07-23T23:08:54;24.70;83.80
4596;DHT22;2310;49.978;8.742;2022-07-23T23:12:56;24.70;85.60
4596;DHT22;2310;49.978;8.742;2022-07-23T23:16:57;24.70;86.10
4596;DHT22;2310;49.978;8.742;2022-07-23T23:20:58;24.90;86.40
4596;DHT22;2310;49.978;8.742;2022-07-23T23:24:59;24.70;86.60
4596;DHT22;2310;49.978;8.742;2022-07-23T23:29:01;24.80;87.60
4596;DHT22;2310;49.978;8.742;2022-07-23T23:33:03;24.60;88.90
4596;DHT22;2310;49.978;8.742;2022-07-23T23:37:05;24.50;90.60
4596;DHT22;2310;49.978;8.742;2022-07-23T23:41:06;24.50;91.50
4596;DHT22;2310;49.978;8.742;2022-07-23T23:45:08;24.40;92.80
4596;DHT22;2310;49.978;8.742;2022-07-23T23:49:10;24.30;93.20
4596;DHT22;2310;49.978;8.742;2022-07-23T23:53:12;24.20;93.80
4596;DHT22;2310;49.978;8.742;2022-07-23T23:57:13;24.20;94.70
